sim
Sign-in with your pilot id or email,
or register
Callsign
Passwort

Schedule Details

Flight Number: RYR1003 (2)
Departure: Warsaw Modlin Airport (EPMO) at 19:30
Arrival: Thessaloniki International Airport (LGTS) at 21:45
Route: Ryanair Passenger Schedule. Enter filed route here before submitting Pirep.

Weather Information
Getting current METAR information for EPMO 211100Z 24011KT 3100 -RA BR OVC005 06/05 Q1019
Getting current METAR information for LGTS 211050Z 34016KT CAVOK 16/M01 Q1023 NOSIG

Schedule Frequency

Route Map